Time;durP1;ratioP1;P1;durP2;ratioP2;P2;SDS_P1;SDS_P2;PMS_P1;PMS_P2;Temp;Humidity;BMP_temperature;BMP_pressure;BME280_temperature;BME280_humidity;BME280_pressure;Samples;Min_cycle;Max_cycle;Signal;HPM_P1;HPM_P2
2022/07/28 00:02:03;;;;;;;0.00;0.00;;;11.80;99.90;;;;;;5049581;28;20135;-78
2022/07/28 00:04:29;;;;;;;0.00;0.00;;;11.80;99.90;;;;;;5048697;28;20144;-78
2022/07/28 00:06:55;;;;;;;0.00;0.00;;;11.80;99.90;;;;;;5032432;28;20132;-78
2022/07/28 00:09:20;;;;;;;0.00;0.00;;;11.70;99.90;;;;;;5065625;28;20045;-78
2022/07/28 00:11:46;;;;;;;0.00;0.00;;;11.60;99.90;;;;;;5048898;28;20105;-78
2022/07/28 00:14:12;;;;;;;0.00;0.00;;;11.70;99.90;;;;;;5048870;28;20065;-78
2022/07/28 00:16:37;;;;;;;0.00;0.00;;;11.70;99.90;;;;;;5035147;28;20094;-79
2022/07/28 00:19:03;;;;;;;0.03;0.03;;;11.70;99.90;;;;;;5053523;28;20401;-79
2022/07/28 00:21:29;;;;;;;0.00;0.00;;;11.70;99.90;;;;;;5036297;28;20073;-79
2022/07/28 00:23:54;;;;;;;0.00;0.00;;;11.70;99.90;;;;;;5052993;28;20447;-78
2022/07/28 00:26:20;;;;;;;0.10;0.10;;;11.80;99.90;;;;;;5069510;28;20136;-78
2022/07/28 00:28:47;;;;;;;0.00;0.00;;;11.80;99.90;;;;;;5053037;28;20049;-79
2022/07/28 00:31:12;;;;;;;0.00;0.00;;;11.70;99.90;;;;;;5053131;28;20049;-78
2022/07/28 00:33:38;;;;;;;0.45;0.45;;;11.80;99.90;;;;;;5069504;28;20044;-78
2022/07/28 00:36:06;;;;;;;0.00;0.00;;;11.70;99.90;;;;;;5069461;28;20543;-79
2022/07/28 00:38:32;;;;;;;0.00;0.00;;;11.70;99.90;;;;;;5053389;28;20148;-79
2022/07/28 00:41:10;;;;;;;0.00;0.00;;;11.70;99.90;;;;;;5053256;28;20057;-79
2022/07/28 00:43:40;;;;;;;0.00;0.00;;;11.80;99.90;;;;;;5069510;28;20077;-78
2022/07/28 00:46:07;;;;;;;0.00;0.00;;;11.70;99.90;;;;;;5069248;28;20077;-79
2022/07/28 00:48:36;;;;;;;0.00;0.00;;;11.70;99.90;;;;;;5069317;28;20501;-79
2022/07/28 00:51:01;;;;;;;0.00;0.00;;;11.70;99.90;;;;;;5052646;28;20045;-79
2022/07/28 00:53:28;;;;;;;0.00;0.00;;;11.70;99.90;;;;;;5052193;28;20144;-79
2022/07/28 00:55:54;;;;;;;0.00;0.00;;;11.70;99.90;;;;;;5035916;28;20046;-79
2022/07/28 00:58:20;;;;;;;0.00;0.00;;;11.60;99.90;;;;;;5035999;28;20045;-78
2022/07/28 01:00:46;;;;;;;0.10;0.10;;;11.60;99.90;;;;;;5035106;28;20050;-79
2022/07/28 01:03:12;;;;;;;0.00;0.00;;;11.60;99.90;;;;;;5034526;28;20085;-78
2022/07/28 01:05:58;;;;;;;0.10;0.00;;;11.60;99.90;;;;;;5050359;28;20065;-78
2022/07/28 01:08:37;;;;;;;0.28;0.28;;;11.60;99.90;;;;;;5035962;28;20390;-79
2022/07/28 01:11:15;;;;;;;0.08;0.00;;;11.60;99.90;;;;;;5035685;28;20504;-79
2022/07/28 01:14:09;;;;;;;0.00;0.00;;;11.60;99.90;;;;;;5052083;28;20111;-79
2022/07/28 01:16:46;;;;;;;0.00;0.00;;;11.50;99.90;;;;;;5052378;28;20136;-79
2022/07/28 01:19:45;;;;;;;0.00;0.00;;;11.50;99.90;;;;;;5035335;28;20409;-79
2022/07/28 01:22:15;;;;;;;0.00;0.00;;;11.50;99.90;;;;;;5051831;28;20532;-79
2022/07/28 01:25:13;;;;;;;0.00;0.00;;;11.60;99.90;;;;;;5068587;28;20085;-79
2022/07/28 01:28:03;;;;;;;0.00;0.00;;;11.60;99.90;;;;;;5019879;28;20061;-79
2022/07/28 01:30:31;;;;;;;0.00;0.00;;;11.50;99.90;;;;;;5037662;28;20052;-79
2022/07/28 01:33:02;;;;;;;0.00;0.00;;;11.50;99.90;;;;;;5020654;28;20056;-79
2022/07/28 01:35:35;;;;;;;0.00;0.00;;;11.50;99.90;;;;;;5020564;28;20064;-78
2022/07/28 01:38:05;;;;;;;0.00;0.00;;;11.50;99.90;;;;;;5037466;28;20060;-79
2022/07/28 01:40:34;;;;;;;0.00;0.00;;;11.40;99.90;;;;;;5020797;28;20085;-79
2022/07/28 01:43:04;;;;;;;0.00;0.00;;;11.40;99.90;;;;;;5037362;28;20041;-79
2022/07/28 01:45:32;;;;;;;0.00;0.00;;;11.40;99.90;;;;;;5037175;28;20059;-79
2022/07/28 01:48:00;;;;;;;0.00;0.00;;;11.40;99.90;;;;;;5037104;28;20154;-79
2022/07/28 01:50:27;;;;;;;0.00;0.00;;;11.30;99.90;;;;;;5021102;28;20143;-79
2022/07/28 01:52:54;;;;;;;0.00;0.00;;;11.20;99.90;;;;;;5037208;28;20045;-79
2022/07/28 01:55:21;;;;;;;1.25;0.55;;;11.20;99.90;;;;;;5020357;28;20059;-79
2022/07/28 01:57:48;;;;;;;1.38;0.20;;;11.10;99.90;;;;;;5037116;28;20401;-79
2022/07/28 02:00:15;;;;;;;0.00;0.00;;;11.10;99.90;;;;;;5020083;28;20156;-79
2022/07/28 02:02:46;;;;;;;0.05;0.00;;;11.10;99.90;;;;;;5020644;28;20049;-79
2022/07/28 02:05:15;;;;;;;0.00;0.00;;;11.10;99.90;;;;;;5067995;28;20045;-79
2022/07/28 02:07:43;;;;;;;0.00;0.00;;;11.10;99.90;;;;;;5068104;28;20046;-79
2022/07/28 02:10:13;;;;;;;0.00;0.00;;;11.00;99.90;;;;;;5051146;28;20057;-79
2022/07/28 02:12:40;;;;;;;0.00;0.00;;;11.00;99.90;;;;;;5051583;28;20049;-79
2022/07/28 02:15:08;;;;;;;0.00;0.00;;;11.20;99.90;;;;;;5034765;28;20490;-79
2022/07/28 02:17:35;;;;;;;1.35;0.00;;;11.10;99.90;;;;;;5067820;28;20052;-79
2022/07/28 02:20:04;;;;;;;0.00;0.00;;;11.10;99.90;;;;;;5067682;28;20045;-79
2022/07/28 02:22:30;;;;;;;0.00;0.00;;;11.00;99.90;;;;;;5034358;28;20056;-79
2022/07/28 02:24:57;;;;;;;0.00;0.00;;;11.00;99.90;;;;;;5034077;28;20493;-79
2022/07/28 02:27:32;;;;;;;0.00;0.00;;;11.10;99.90;;;;;;5051052;28;20099;-79
2022/07/28 02:30:07;;;;;;;0.00;0.00;;;11.00;99.90;;;;;;5051036;28;20350;-79
2022/07/28 02:33:11;;;;;;;0.00;0.00;;;11.00;99.90;;;;;;5034533;28;20128;-80
2022/07/28 02:35:59;;;;;;;0.00;0.00;;;11.00;99.90;;;;;;5017646;28;20048;-79
2022/07/28 02:38:28;;;;;;;0.00;0.00;;;11.00;99.90;;;;;;5051169;28;20049;-79
2022/07/28 02:40:59;;;;;;;0.00;0.00;;;11.00;99.90;;;;;;5033773;28;20045;-79
2022/07/28 02:43:31;;;;;;;0.00;0.00;;;10.90;99.90;;;;;;5050599;28;20099;-79
2022/07/28 02:46:03;;;;;;;0.08;0.00;;;10.90;99.90;;;;;;5033879;28;20589;-79
2022/07/28 02:48:31;;;;;;;0.20;0.08;;;10.90;99.90;;;;;;5050544;28;20045;-80
2022/07/28 02:50:59;;;;;;;0.73;0.47;;;10.90;99.90;;;;;;5050816;28;20072;-80
2022/07/28 02:53:27;;;;;;;0.15;0.15;;;10.90;99.90;;;;;;5033714;28;20410;-80
2022/07/28 02:55:54;;;;;;;0.00;0.00;;;10.90;99.90;;;;;;5050201;28;20514;-80
2022/07/28 02:58:22;;;;;;;0.00;0.00;;;11.00;99.90;;;;;;5066889;28;20512;-80
2022/07/28 03:00:49;;;;;;;0.00;0.00;;;11.00;99.90;;;;;;5049630;28;20060;-79
2022/07/28 03:03:17;;;;;;;0.00;0.00;;;10.90;99.90;;;;;;5050019;28;20053;-79
2022/07/28 03:05:43;;;;;;;0.00;0.00;;;10.90;99.90;;;;;;5033288;28;20123;-79
2022/07/28 03:08:10;;;;;;;0.00;0.00;;;10.90;99.90;;;;;;5050122;28;20068;-79
2022/07/28 03:10:36;;;;;;;0.00;0.00;;;10.90;99.90;;;;;;5033455;28;20053;-80
2022/07/28 03:13:04;;;;;;;0.00;0.00;;;10.80;99.90;;;;;;5033350;28;20401;-80
2022/07/28 03:15:30;;;;;;;0.00;0.00;;;10.80;99.90;;;;;;5033880;28;20509;-79
2022/07/28 03:17:55;;;;;;;0.00;0.00;;;10.70;99.90;;;;;;5049706;28;20045;-79
2022/07/28 03:20:21;;;;;;;0.00;0.00;;;10.70;99.90;;;;;;5066908;28;20053;-80
2022/07/28 03:22:47;;;;;;;0.00;0.00;;;10.60;99.90;;;;;;5066567;28;20103;-80
2022/07/28 03:25:19;;;;;;;0.00;0.00;;;10.70;99.90;;;;;;5049732;28;20386;-80
2022/07/28 03:27:47;;;;;;;0.28;0.28;;;10.60;99.90;;;;;;5066751;28;20092;-80
2022/07/28 03:30:21;;;;;;;1.48;0.25;;;10.60;99.90;;;;;;5066485;28;20041;-80
2022/07/28 03:32:51;;;;;;;0.00;0.00;;;10.60;99.90;;;;;;5033504;28;20435;-80
2022/07/28 03:35:17;;;;;;;0.00;0.00;;;10.60;99.90;;;;;;5049826;28;20045;-80
2022/07/28 03:37:53;;;;;;;0.47;0.20;;;10.60;99.90;;;;;;5066304;28;20041;-80
2022/07/28 03:40:20;;;;;;;0.00;0.00;;;10.60;99.90;;;;;;5033197;28;20481;-80
2022/07/28 03:42:47;;;;;;;0.10;0.00;;;10.60;99.90;;;;;;5066335;28;20370;-80
2022/07/28 03:45:16;;;;;;;0.00;0.00;;;10.60;99.90;;;;;;5049480;28;20042;-80
2022/07/28 03:48:02;;;;;;;0.00;0.00;;;10.50;99.90;;;;;;5066457;28;20372;-79
2022/07/28 03:50:31;;;;;;;0.00;0.00;;;10.50;99.90;;;;;;5032148;28;20049;-80
2022/07/28 03:52:58;;;;;;;0.00;0.00;;;10.50;99.90;;;;;;5049274;28;20049;-79
2022/07/28 03:55:25;;;;;;;0.00;0.00;;;10.50;99.90;;;;;;5049319;28;20037;-80
2022/07/28 03:57:51;;;;;;;0.00;0.00;;;10.50;99.90;;;;;;5032740;28;20049;-80
2022/07/28 04:00:18;;;;;;;4.38;0.00;;;10.40;99.90;;;;;;5049028;28;20444;-80
2022/07/28 04:02:45;;;;;;;0.00;0.00;;;10.40;99.90;;;;;;5048958;28;20049;-80
2022/07/28 04:05:12;;;;;;;0.00;0.00;;;10.40;99.90;;;;;;5049129;28;20060;-80
2022/07/28 04:07:39;;;;;;;0.00;0.00;;;10.40;99.90;;;;;;5049336;28;20111;-80
2022/07/28 04:10:10;;;;;;;0.75;0.35;;;10.40;99.90;;;;;;5065976;28;20056;-80
2022/07/28 04:12:56;;;;;;;0.00;0.00;;;10.40;99.90;;;;;;5048622;28;20150;-80
2022/07/28 04:15:23;;;;;;;0.00;0.00;;;10.40;99.90;;;;;;5049159;28;20056;-79
2022/07/28 04:17:51;;;;;;;0.00;0.00;;;10.30;99.90;;;;;;5049183;28;20041;-80
2022/07/28 04:20:18;;;;;;;0.10;0.10;;;10.30;99.90;;;;;;5048837;28;20416;-79
2022/07/28 04:22:45;;;;;;;0.00;0.00;;;10.20;99.90;;;;;;5065871;28;20485;-80
2022/07/28 04:25:14;;;;;;;0.70;0.22;;;10.30;99.90;;;;;;5065727;28;20128;-80
2022/07/28 04:27:43;;;;;;;0.00;0.00;;;10.30;99.90;;;;;;5065751;28;20133;-79
2022/07/28 04:30:17;;;;;;;0.73;0.20;;;10.30;99.90;;;;;;5048922;28;20092;-80
2022/07/28 04:32:45;;;;;;;0.00;0.00;;;10.30;99.90;;;;;;5049569;28;20146;-80
2022/07/28 04:35:11;;;;;;;0.00;0.00;;;10.40;99.90;;;;;;5065741;28;20059;-80
2022/07/28 04:37:37;;;;;;;0.00;0.00;;;10.30;99.90;;;;;;5065688;28;20054;-80
2022/07/28 04:40:05;;;;;;;0.00;0.00;;;10.30;99.90;;;;;;5048768;28;20123;-79
2022/07/28 04:42:32;;;;;;;0.00;0.00;;;10.30;99.90;;;;;;5048702;28;20103;-79
2022/07/28 04:44:58;;;;;;;0.00;0.00;;;10.30;99.90;;;;;;5065439;28;20128;-80
2022/07/28 04:47:24;;;;;;;0.00;0.00;;;10.30;99.90;;;;;;5048797;28;20049;-80
2022/07/28 04:49:50;;;;;;;0.00;0.00;;;10.40;99.90;;;;;;5065912;28;20073;-80
2022/07/28 04:52:17;;;;;;;0.00;0.00;;;10.30;99.90;;;;;;5065606;28;20053;-80
2022/07/28 04:54:42;;;;;;;0.00;0.00;;;10.30;99.90;;;;;;5049067;28;20095;-79
2022/07/28 04:57:09;;;;;;;0.00;0.00;;;10.30;99.90;;;;;;5032076;28;20080;-79
2022/07/28 04:59:35;;;;;;;0.00;0.00;;;10.30;99.90;;;;;;5015677;28;20053;-80
2022/07/28 05:02:02;;;;;;;0.00;0.00;;;10.20;99.90;;;;;;5065601;28;20060;-80
2022/07/28 05:04:28;;;;;;;0.00;0.00;;;10.20;99.90;;;;;;5068850;28;20041;-79
2022/07/28 05:06:54;;;;;;;0.00;0.00;;;10.30;99.90;;;;;;5052519;28;20045;-79
2022/07/28 05:09:20;;;;;;;0.00;0.00;;;10.30;99.90;;;;;;5052242;28;20049;-80
2022/07/28 05:11:46;;;;;;;0.00;0.00;;;10.30;99.90;;;;;;5052130;28;20056;-79
2022/07/28 05:14:11;;;;;;;0.00;0.00;;;10.40;99.90;;;;;;5068929;28;20045;-79
2022/07/28 05:16:37;;;;;;;0.00;0.00;;;10.40;99.90;;;;;;5069347;28;20528;-79
2022/07/28 05:19:03;;;;;;;0.00;0.00;;;10.50;99.90;;;;;;5035506;28;20049;-80
2022/07/28 05:21:28;;;;;;;0.00;0.00;;;10.60;99.90;;;;;;5051909;28;20143;-80
2022/07/28 05:23:54;;;;;;;0.00;0.00;;;10.60;99.90;;;;;;5035344;28;20052;-80
2022/07/28 05:26:20;;;;;;;0.00;0.00;;;10.60;99.90;;;;;;5067617;28;20140;-79
2022/07/28 05:28:45;;;;;;;0.00;0.00;;;10.70;99.90;;;;;;5051286;28;20053;-79
2022/07/28 05:31:11;;;;;;;0.00;0.00;;;10.80;99.90;;;;;;5051833;28;20140;-79
2022/07/28 05:33:37;;;;;;;0.00;0.00;;;10.80;99.90;;;;;;5035261;28;20092;-80
2022/07/28 05:36:03;;;;;;;0.00;0.00;;;10.90;99.90;;;;;;5035187;28;20049;-80
2022/07/28 05:38:30;;;;;;;1.17;0.35;;;11.00;99.90;;;;;;5051587;28;20049;-80
2022/07/28 05:40:57;;;;;;;0.25;0.25;;;11.10;99.90;;;;;;5051613;28;20107;-80
2022/07/28 05:43:23;;;;;;;0.00;0.00;;;11.20;99.90;;;;;;5068355;28;20045;-80
2022/07/28 05:45:48;;;;;;;0.00;0.00;;;11.30;99.90;;;;;;5050844;28;20140;-80
2022/07/28 05:48:19;;;;;;;0.00;0.00;;;11.40;99.90;;;;;;5051735;28;20052;-80
2022/07/28 05:50:45;;;;;;;0.57;0.10;;;11.70;99.90;;;;;;5034609;28;20626;-80
2022/07/28 05:53:11;;;;;;;0.00;0.00;;;12.00;99.90;;;;;;5068024;28;20053;-80
2022/07/28 05:55:36;;;;;;;0.00;0.00;;;12.20;99.90;;;;;;5034552;28;20057;-80
2022/07/28 05:58:02;;;;;;;0.52;0.00;;;12.30;99.90;;;;;;5035381;28;20041;-81
2022/07/28 06:00:28;;;;;;;0.00;0.00;;;12.40;99.90;;;;;;5067688;28;20409;-81
2022/07/28 06:02:54;;;;;;;0.00;0.00;;;12.40;99.90;;;;;;5051200;28;20144;-80
2022/07/28 06:05:21;;;;;;;0.10;0.00;;;12.40;99.90;;;;;;5050659;28;20052;-79
2022/07/28 06:07:49;;;;;;;0.00;0.00;;;12.30;99.90;;;;;;5067815;28;20072;-80
2022/07/28 06:10:17;;;;;;;0.00;0.00;;;12.90;99.90;;;;;;5051858;28;20057;-80
2022/07/28 06:12:50;;;;;;;0.00;0.00;;;12.70;99.90;;;;;;5067889;28;20045;-79
2022/07/28 06:15:19;;;;;;;0.00;0.00;;;12.80;99.90;;;;;;5051607;28;20132;-79
2022/07/28 06:17:45;;;;;;;0.00;0.00;;;12.90;99.90;;;;;;5034433;28;20099;-80
2022/07/28 06:20:11;;;;;;;0.00;0.00;;;13.10;99.90;;;;;;5067635;28;20042;-79
2022/07/28 06:22:46;;;;;;;0.00;0.00;;;13.30;99.90;;;;;;5067289;28;20559;-79
2022/07/28 06:25:12;;;;;;;0.00;0.00;;;13.60;99.90;;;;;;5050987;28;20159;-78
2022/07/28 06:27:38;;;;;;;0.00;0.00;;;14.20;99.90;;;;;;5050603;28;20496;-79
2022/07/28 06:30:04;;;;;;;0.00;0.00;;;13.60;99.90;;;;;;5067700;28;20080;-79
2022/07/28 06:32:30;;;;;;;0.00;0.00;;;14.00;99.90;;;;;;5050845;28;20041;-79
2022/07/28 06:34:56;;;;;;;0.03;0.03;;;14.10;99.90;;;;;;5067364;28;20508;-79
2022/07/28 06:37:21;;;;;;;0.00;0.00;;;14.20;99.90;;;;;;5050979;28;20454;-79
2022/07/28 06:39:47;;;;;;;0.00;0.00;;;14.40;99.90;;;;;;5033993;28;20084;-78
2022/07/28 06:42:12;;;;;;;0.00;0.00;;;14.40;99.90;;;;;;5050084;28;20409;-79
2022/07/28 06:44:38;;;;;;;0.00;0.00;;;14.70;99.90;;;;;;5033823;28;20041;-79
2022/07/28 06:47:04;;;;;;;0.00;0.00;;;14.90;99.90;;;;;;5049865;28;20463;-78
2022/07/28 06:49:29;;;;;;;0.00;0.00;;;14.90;99.90;;;;;;5033729;28;20573;-79
2022/07/28 06:51:55;;;;;;;0.00;0.00;;;15.00;99.90;;;;;;5033543;28;20041;-79
2022/07/28 06:54:21;;;;;;;0.00;0.00;;;15.10;99.90;;;;;;5049882;28;20053;-80
2022/07/28 06:56:46;;;;;;;0.00;0.00;;;15.30;99.90;;;;;;5050184;28;20055;-79
2022/07/28 06:59:14;;;;;;;0.10;0.10;;;15.30;99.90;;;;;;5050258;28;20476;-79
2022/07/28 07:01:39;;;;;;;0.00;0.00;;;15.40;99.90;;;;;;5033497;28;20159;-79
2022/07/28 07:04:07;;;;;;;0.10;0.00;;;15.50;99.90;;;;;;5050183;28;20505;-80
2022/07/28 07:06:32;;;;;;;0.15;0.10;;;15.80;99.90;;;;;;5033516;28;20121;-80
2022/07/28 07:08:58;;;;;;;0.00;0.00;;;15.80;99.90;;;;;;5049862;28;20037;-80
2022/07/28 07:11:25;;;;;;;0.00;0.00;;;15.70;99.90;;;;;;5066462;28;20055;-80
2022/07/28 07:13:51;;;;;;;0.10;0.10;;;15.80;99.90;;;;;;5033739;28;20397;-80
2022/07/28 07:16:17;;;;;;;0.13;0.13;;;16.30;99.90;;;;;;5050242;28;20057;-80
2022/07/28 07:18:43;;;;;;;0.00;0.00;;;16.00;99.90;;;;;;5049861;28;20404;-80
2022/07/28 07:21:09;;;;;;;0.00;0.00;;;16.10;99.90;;;;;;5033354;28;20045;-81
2022/07/28 07:23:34;;;;;;;0.22;0.22;;;16.20;99.90;;;;;;5049807;28;20136;-80
2022/07/28 07:26:01;;;;;;;0.00;0.00;;;16.40;99.90;;;;;;5049050;28;20048;-80
2022/07/28 07:28:27;;;;;;;0.00;0.00;;;16.50;99.90;;;;;;5049785;28;20103;-80
2022/07/28 07:30:53;;;;;;;0.00;0.00;;;16.50;99.90;;;;;;5066175;28;20042;-80
2022/07/28 07:33:19;;;;;;;0.00;0.00;;;16.60;99.90;;;;;;5066131;28;20046;-80
2022/07/28 07:35:44;;;;;;;0.00;0.00;;;16.60;99.90;;;;;;5049620;28;20049;-80
2022/07/28 07:38:10;;;;;;;0.00;0.00;;;16.60;99.90;;;;;;5033121;28;20085;-80
2022/07/28 07:40:36;;;;;;;0.00;0.00;;;16.60;99.90;;;;;;5050153;28;20437;-80
2022/07/28 07:43:04;;;;;;;0.00;0.00;;;16.80;99.90;;;;;;5066049;28;20490;-80
2022/07/28 07:45:30;;;;;;;0.00;0.00;;;16.80;99.90;;;;;;5049286;28;20546;-80
2022/07/28 07:47:55;;;;;;;0.00;0.00;;;16.80;99.90;;;;;;5066022;28;20132;-80
2022/07/28 07:50:22;;;;;;;0.00;0.00;;;16.80;99.90;;;;;;5049590;28;20143;-80
2022/07/28 07:52:51;;;;;;;0.00;0.00;;;16.90;99.90;;;;;;5066218;28;20397;-80
2022/07/28 07:55:16;;;;;;;0.00;0.00;;;17.00;99.90;;;;;;5048977;28;20049;-81
2022/07/28 07:57:43;;;;;;;0.00;0.00;;;17.10;99.90;;;;;;5032709;28;20033;-80
2022/07/28 08:00:09;;;;;;;0.00;0.00;;;17.20;99.90;;;;;;5048365;28;20481;-80
2022/07/28 08:02:40;;;;;;;0.00;0.00;;;17.30;99.90;;;;;;5032598;28;20049;-81
2022/07/28 08:05:06;;;;;;;0.00;0.00;;;17.40;99.90;;;;;;5066476;28;20481;-81
2022/07/28 08:07:32;;;;;;;0.00;0.00;;;17.20;99.90;;;;;;5065981;28;20049;-80
2022/07/28 08:09:57;;;;;;;0.00;0.00;;;17.50;99.90;;;;;;5066149;28;20386;-80
2022/07/28 08:12:23;;;;;;;0.00;0.00;;;17.60;99.90;;;;;;5049103;28;20049;-81
2022/07/28 08:14:49;;;;;;;0.00;0.00;;;17.70;99.90;;;;;;5049110;28;20045;-81
2022/07/28 08:17:15;;;;;;;0.00;0.00;;;17.70;99.90;;;;;;5048570;28;20050;-81
2022/07/28 08:19:40;;;;;;;0.00;0.00;;;17.30;99.90;;;;;;5048789;28;20062;-81
2022/07/28 08:22:06;;;;;;;0.00;0.00;;;17.80;99.90;;;;;;5049060;28;20050;-81
2022/07/28 08:24:32;;;;;;;0.17;0.17;;;18.20;99.90;;;;;;5049148;28;20061;-81
2022/07/28 08:26:58;;;;;;;0.00;0.00;;;18.00;99.90;;;;;;5048803;28;20053;-81
2022/07/28 08:29:23;;;;;;;0.00;0.00;;;18.10;99.40;;;;;;5065641;28;20175;-81
2022/07/28 08:31:49;;;;;;;0.00;0.00;;;17.50;99.90;;;;;;5048606;28;20218;-81
2022/07/28 08:34:15;;;;;;;0.13;0.13;;;18.30;99.90;;;;;;5066202;28;20059;-82
2022/07/28 08:36:40;;;;;;;0.00;0.00;;;18.40;99.90;;;;;;5033353;28;20076;-81
2022/07/28 08:39:06;;;;;;;0.00;0.00;;;18.50;99.90;;;;;;5036331;28;20171;-81
2022/07/28 08:41:58;;;;;;;0.10;0.10;;;18.50;99.90;;;;;;5037139;28;20045;-81
2022/07/28 08:44:29;;;;;;;0.00;0.00;;;18.50;97.60;;;;;;5052892;28;20401;-81
2022/07/28 08:46:57;;;;;;;0.00;0.00;;;18.90;98.10;;;;;;5051917;28;20505;-82
2022/07/28 08:49:23;;;;;;;0.00;0.00;;;18.70;96.70;;;;;;5069326;28;20576;-81
2022/07/28 08:51:51;;;;;;;0.05;0.03;;;18.60;97.60;;;;;;5036119;28;20132;-81
2022/07/28 08:54:21;;;;;;;0.00;0.00;;;18.50;98.10;;;;;;5036001;28;20214;-81
2022/07/28 08:56:47;;;;;;;0.00;0.00;;;18.70;98.00;;;;;;5069247;28;20136;-81
2022/07/28 08:59:13;;;;;;;0.00;0.00;;;18.80;97.50;;;;;;5069072;28;20046;-81
2022/07/28 09:01:40;;;;;;;0.00;0.00;;;19.00;98.60;;;;;;5052032;28;20061;-81
2022/07/28 09:04:09;;;;;;;0.20;0.20;;;18.90;97.70;;;;;;5035954;28;20405;-81
2022/07/28 09:06:40;;;;;;;0.00;0.00;;;19.30;98.20;;;;;;5035662;28;20056;-81
2022/07/28 09:09:10;;;;;;;0.00;0.00;;;19.20;97.70;;;;;;5052425;28;20041;-82
2022/07/28 09:11:39;;;;;;;0.00;0.00;;;19.60;97.90;;;;;;5051926;28;20061;-82
2022/07/28 09:14:05;;;;;;;0.00;0.00;;;19.30;98.60;;;;;;5051767;28;20072;-82
2022/07/28 09:16:31;;;;;;;0.00;0.00;;;19.50;98.40;;;;;;5051994;28;20057;-82
2022/07/28 09:18:56;;;;;;;0.00;0.00;;;19.90;97.70;;;;;;5035473;28;20045;-82
2022/07/28 09:21:23;;;;;;;0.00;0.00;;;19.70;98.40;;;;;;5068155;28;20057;-81
2022/07/28 09:23:49;;;;;;;0.00;0.00;;;19.80;98.30;;;;;;5035081;28;20044;-81
2022/07/28 09:26:16;;;;;;;0.00;0.00;;;19.90;98.60;;;;;;5051640;28;20136;-81
2022/07/28 09:28:56;;;;;;;0.00;0.00;;;20.00;97.60;;;;;;5035117;28;20045;-81
2022/07/28 09:31:24;;;;;;;0.00;0.00;;;20.10;96.70;;;;;;5051344;28;20097;-81
2022/07/28 09:34:00;;;;;;;0.20;0.00;;;20.00;96.20;;;;;;5068565;28;20042;-81
2022/07/28 09:36:28;;;;;;;0.00;0.00;;;20.00;96.10;;;;;;5035251;28;20129;-81
2022/07/28 09:38:55;;;;;;;0.00;0.00;;;20.10;96.10;;;;;;5052081;28;20386;-81
2022/07/28 09:41:21;;;;;;;0.00;0.00;;;20.10;93.20;;;;;;5051598;28;20050;-81
2022/07/28 09:43:49;;;;;;;0.00;0.00;;;20.10;93.00;;;;;;5068158;28;20064;-80
2022/07/28 09:46:17;;;;;;;0.00;0.00;;;20.20;94.50;;;;;;5035015;28;20049;-81
2022/07/28 09:48:49;;;;;;;0.08;0.08;;;20.40;94.30;;;;;;5050699;28;20104;-81
2022/07/28 09:51:23;;;;;;;0.00;0.00;;;20.50;94.00;;;;;;5035087;28;20041;-80
2022/07/28 09:53:49;;;;;;;;;;;20.70;91.90;;;;;;5052185;28;20183;-80
2022/07/28 09:56:15;;;;;;;0.00;0.00;;;21.30;94.00;;;;;;5051628;28;19921;-81
2022/07/28 09:58:52;;;;;;;0.00;0.00;;;20.90;91.70;;;;;;5068007;28;20041;-79
2022/07/28 10:01:21;;;;;;;0.00;0.00;;;21.10;92.10;;;;;;5034516;28;20142;-80
2022/07/28 10:03:57;;;;;;;0.00;0.00;;;21.30;91.50;;;;;;5051382;28;20269;-80
2022/07/28 10:06:29;;;;;;;0.00;0.00;;;21.30;92.10;;;;;;5034237;28;20056;-80
2022/07/28 10:08:58;;;;;;;0.00;0.00;;;21.00;90.80;;;;;;5051277;28;20056;-80
2022/07/28 10:11:26;;;;;;;0.00;0.00;;;20.70;90.00;;;;;;5051342;28;20049;-80
2022/07/28 10:14:03;;;;;;;0.00;0.00;;;20.40;90.80;;;;;;5051179;28;20096;-80
2022/07/28 10:16:45;;;;;;;0.00;0.00;;;20.40;91.30;;;;;;5034324;28;20060;-80
2022/07/28 10:19:11;;;;;;;0.00;0.00;;;20.30;91.10;;;;;;5050988;28;20088;-80
2022/07/28 10:21:43;;;;;;;0.00;0.00;;;20.40;92.00;;;;;;5034431;28;20139;-80
2022/07/28 10:24:13;;;;;;;0.00;0.00;;;20.60;91.40;;;;;;5050841;28;20187;-80
2022/07/28 10:26:43;;;;;;;0.00;0.00;;;20.80;88.80;;;;;;5067571;28;20393;-80
2022/07/28 10:29:14;;;;;;;0.00;0.00;;;20.80;89.40;;;;;;5067442;28;20129;-80
2022/07/28 10:31:42;;;;;;;0.00;0.00;;;20.90;88.20;;;;;;5050869;28;20057;-80
2022/07/28 10:34:14;;;;;;;0.00;0.00;;;21.10;84.80;;;;;;5034337;28;20375;-80
2022/07/28 10:36:41;;;;;;;0.55;0.00;;;21.00;86.30;;;;;;5067402;28;20060;-80
2022/07/28 10:39:18;;;;;;;0.25;0.10;;;21.00;83.90;;;;;;5034660;28;20108;-80
2022/07/28 10:41:44;;;;;;;0.00;0.00;;;20.90;86.30;;;;;;5034033;28;20045;-80
2022/07/28 10:44:17;;;;;;;0.00;0.00;;;20.80;84.50;;;;;;5050318;28;20072;-80
2022/07/28 10:46:43;;;;;;;0.00;0.00;;;21.00;87.40;;;;;;5066868;28;20041;-80
2022/07/28 10:49:11;;;;;;;0.00;0.00;;;21.00;88.10;;;;;;5050455;28;20052;-80
2022/07/28 10:51:40;;;;;;;0.00;0.00;;;21.10;84.60;;;;;;5067135;28;20498;-80
2022/07/28 10:54:17;;;;;;;0.00;0.00;;;21.30;85.40;;;;;;5033714;28;20508;-80
2022/07/28 10:56:55;;;;;;;0.00;0.00;;;21.60;85.20;;;;;;5050445;28;20373;-80
2022/07/28 10:59:24;;;;;;;0.08;0.08;;;21.80;86.00;;;;;;5050251;28;20393;-80
2022/07/28 11:01:49;;;;;;;0.00;0.00;;;21.70;83.10;;;;;;5049924;28;20405;-80
2022/07/28 11:04:40;;;;;;;0.00;0.00;;;21.60;81.10;;;;;;5033386;28;20042;-80
2022/07/28 11:07:11;;;;;;;0.00;0.00;;;21.70;85.50;;;;;;5033214;28;20512;-80
2022/07/28 11:09:37;;;;;;;0.45;0.00;;;21.90;85.40;;;;;;5066807;28;20438;-80
2022/07/28 11:12:03;;;;;;;0.00;0.00;;;21.90;84.90;;;;;;5048899;28;20123;-80
2022/07/28 11:14:32;;;;;;;0.00;0.00;;;21.80;82.80;;;;;;5049571;28;20057;-80
2022/07/28 11:17:04;;;;;;;0.00;0.00;;;21.90;80.70;;;;;;5066602;28;20124;-80
2022/07/28 11:19:45;;;;;;;0.00;0.00;;;21.80;81.10;;;;;;5050049;28;20068;-80
2022/07/28 11:22:17;;;;;;;0.00;0.00;;;21.90;81.30;;;;;;5033287;28;20046;-80
2022/07/28 11:24:55;;;;;;;0.45;0.10;;;22.00;81.00;;;;;;5033092;28;20053;-80
2022/07/28 11:27:39;;;;;;;0.00;0.00;;;22.20;81.60;;;;;;5033181;28;20508;-80
2022/07/28 11:30:17;;;;;;;0.00;0.00;;;22.50;80.90;;;;;;5049606;28;20440;-80
2022/07/28 11:32:49;;;;;;;0.00;0.00;;;22.60;82.00;;;;;;5061255;28;20135;-80
2022/07/28 11:35:16;;;;;;;0.30;0.30;;;22.70;78.50;;;;;;5076189;28;20128;-80
2022/07/28 11:38:00;;;;;;;0.00;0.00;;;22.90;78.60;;;;;;5052746;28;20064;-78
2022/07/28 11:40:36;;;;;;;0.00;0.00;;;22.50;74.90;;;;;;5036625;28;20095;-79
2022/07/28 11:43:21;;;;;;;0.00;0.00;;;23.00;76.40;;;;;;5052943;28;20048;-78
2022/07/28 11:45:47;;;;;;;0.55;0.43;;;23.20;75.20;;;;;;5052460;28;20489;-78
2022/07/28 11:48:20;;;;;;;0.00;0.00;;;23.30;75.50;;;;;;5035954;28;20049;-79
2022/07/28 11:51:08;;;;;;;0.00;0.00;;;23.40;74.50;;;;;;5053116;28;20366;-79
2022/07/28 11:53:43;;;;;;;1.67;0.20;;;23.70;75.80;;;;;;5036235;28;20044;-78
2022/07/28 11:56:36;;;;;;;0.00;0.00;;;23.80;72.00;;;;;;5036781;28;20048;-78
2022/07/28 11:59:06;;;;;;;0.10;0.00;;;24.10;73.70;;;;;;5036163;28;20057;-79
2022/07/28 12:01:33;;;;;;;0.00;0.00;;;24.20;75.10;;;;;;5052256;28;20048;-78
2022/07/28 12:04:07;;;;;;;0.00;0.00;;;24.20;70.10;;;;;;5052488;28;20124;-79
2022/07/28 12:06:39;;;;;;;0.00;0.00;;;24.30;73.30;;;;;;5035989;28;20044;-78
2022/07/28 12:09:06;;;;;;;0.00;0.00;;;24.40;74.30;;;;;;5052532;28;20098;-78
2022/07/28 12:11:35;;;;;;;0.00;0.00;;;24.40;69.90;;;;;;5054608;28;20044;-79
2022/07/28 12:14:05;;;;;;;0.00;0.00;;;24.40;70.90;;;;;;5042928;28;20056;-79
2022/07/28 12:16:34;;;;;;;0.08;0.00;;;24.40;70.60;;;;;;5042499;28;20084;-79
2022/07/28 12:19:01;;;;;;;0.03;0.03;;;24.30;74.60;;;;;;5059153;28;20049;-79
2022/07/28 12:21:40;;;;;;;0.00;0.00;;;24.10;71.70;;;;;;5059082;28;20048;-79
2022/07/28 12:24:08;;;;;;;0.00;0.00;;;23.90;72.00;;;;;;5058913;28;20041;-78
2022/07/28 12:26:36;;;;;;;0.00;0.00;;;24.00;71.50;;;;;;5058936;28;20049;-78
2022/07/28 12:29:03;;;;;;;0.00;0.00;;;24.40;68.50;;;;;;5058767;28;20060;-78
2022/07/28 12:31:31;;;;;;;0.00;0.00;;;24.30;69.70;;;;;;5042440;28;20131;-78
2022/07/28 12:33:57;;;;;;;0.00;0.00;;;24.40;69.80;;;;;;5058997;28;20523;-79
2022/07/28 12:36:23;;;;;;;0.00;0.00;;;24.20;69.80;;;;;;5058993;28;20091;-79
2022/07/28 12:38:50;;;;;;;0.43;0.15;;;24.20;70.80;;;;;;5058924;28;20392;-79
2022/07/28 12:41:16;;;;;;;0.00;0.00;;;24.10;70.40;;;;;;5042206;28;20512;-79
2022/07/28 12:43:53;;;;;;;0.00;0.00;;;24.20;70.10;;;;;;5058796;28;20130;-78
2022/07/28 12:46:26;;;;;;;0.00;0.00;;;24.40;70.30;;;;;;5042026;28;20086;-79
2022/07/28 12:48:54;;;;;;;0.00;0.00;;;24.50;70.50;;;;;;5042157;28;20048;-79
2022/07/28 12:51:41;;;;;;;0.00;0.00;;;24.50;69.40;;;;;;5058926;28;20056;-79
2022/07/28 12:54:10;;;;;;;0.00;0.00;;;24.60;69.20;;;;;;5058746;28;20052;-79
2022/07/28 12:56:50;;;;;;;0.00;0.00;;;24.60;69.40;;;;;;5042184;28;20045;-79
2022/07/28 12:59:18;;;;;;;0.00;0.00;;;24.50;66.70;;;;;;5059065;28;20057;-78